createdAt,value
2023-05-08T00:01:30.442Z,64.35
2023-05-08T00:04:22.438Z,64.69
2023-05-08T00:07:14.299Z,65.08
2023-05-08T00:10:07.220Z,65.20
2023-05-08T00:12:59.556Z,65.41
2023-05-08T00:15:51.579Z,65.17
2023-05-08T00:18:43.589Z,65.04
2023-05-08T00:21:35.575Z,65.10
2023-05-08T00:24:27.554Z,65.11
2023-05-08T00:27:19.512Z,64.79
2023-05-08T00:30:13.361Z,64.68
2023-05-08T00:33:05.661Z,64.74
2023-05-08T00:36:02.954Z,64.37
2023-05-08T00:38:55.024Z,64.43
2023-05-08T00:41:47.046Z,64.37
2023-05-08T00:44:40.179Z,64.34
2023-05-08T00:47:32.761Z,64.41
2023-05-08T00:50:24.842Z,64.00
2023-05-08T00:53:17.473Z,63.93
2023-05-08T00:56:13.626Z,63.70
2023-05-08T00:59:08.987Z,63.90
2023-05-08T01:02:01.645Z,63.75
2023-05-08T01:04:55.930Z,63.97
2023-05-08T01:07:48.027Z,64.08
2023-05-08T01:10:49.137Z,63.95
2023-05-08T01:13:53.224Z,63.98
2023-05-08T01:16:52.335Z,64.10
2023-05-08T01:20:01.785Z,64.22
2023-05-08T01:23:26.074Z,64.49
2023-05-08T01:26:51.919Z,64.54
2023-05-08T01:30:28.545Z,64.74
2023-05-08T01:33:28.011Z,64.97
2023-05-08T01:36:30.335Z,65.20
2023-05-08T01:39:36.670Z,65.40
2023-05-08T01:42:37.263Z,65.50
2023-05-08T01:45:36.776Z,65.64
2023-05-08T01:48:33.885Z,65.57
2023-05-08T01:51:26.559Z,65.61
2023-05-08T01:54:22.731Z,65.56
2023-05-08T01:57:16.039Z,65.67
2023-05-08T02:00:10.443Z,65.66
2023-05-08T02:03:03.662Z,65.82
2023-05-08T02:06:00.496Z,65.92
2023-05-08T02:08:54.482Z,65.77
2023-05-08T02:11:48.457Z,65.65
2023-05-08T02:14:41.281Z,65.16
2023-05-08T02:17:34.718Z,65.13
2023-05-08T02:20:28.865Z,65.22
2023-05-08T02:23:21.994Z,64.77
2023-05-08T02:26:16.233Z,64.68
2023-05-08T02:29:06.981Z,64.46
2023-05-08T02:32:01.641Z,64.71
2023-05-08T02:35:02.993Z,65.02
2023-05-08T02:37:57.482Z,64.96
2023-05-08T02:40:55.247Z,64.92
2023-05-08T02:43:47.854Z,64.96
2023-05-08T02:46:48.979Z,65.08
2023-05-08T02:49:50.148Z,65.13
2023-05-08T02:52:46.842Z,65.29
2023-05-08T02:55:45.091Z,65.34
2023-05-08T02:58:45.617Z,65.22
2023-05-08T03:01:45.452Z,65.33
2023-05-08T03:04:43.284Z,65.43
2023-05-08T03:07:37.517Z,65.62
2023-05-08T03:10:30.669Z,65.68
2023-05-08T03:13:24.026Z,65.38
2023-05-08T03:16:21.694Z,65.65
2023-05-08T03:19:23.620Z,65.78
2023-05-08T03:22:17.501Z,65.83
2023-05-08T03:25:14.019Z,66.02
2023-05-08T03:28:07.110Z,65.97
2023-05-08T03:31:00.737Z,66.07
2023-05-08T03:33:55.591Z,66.07
2023-05-08T03:36:49.289Z,66.10
2023-05-08T03:39:41.478Z,65.96
2023-05-08T03:42:33.703Z,66.04
2023-05-08T03:45:26.086Z,66.05
2023-05-08T03:48:20.126Z,66.30
2023-05-08T03:51:12.314Z,65.98
2023-05-08T03:54:04.286Z,65.98
2023-05-08T03:56:56.965Z,66.03
2023-05-08T04:00:01.462Z,65.31
2023-05-08T04:03:07.945Z,65.41
2023-05-08T04:06:08.100Z,65.56
2023-05-08T04:09:06.741Z,65.28
2023-05-08T04:12:06.247Z,65.01
2023-05-08T04:15:02.419Z,64.63
2023-05-08T04:17:58.460Z,64.45
2023-05-08T04:20:52.762Z,64.72
2023-05-08T04:23:43.634Z,64.65
2023-05-08T04:26:36.203Z,64.52
2023-05-08T04:29:28.308Z,64.70
2023-05-08T04:32:21.880Z,64.70
2023-05-08T04:35:14.843Z,64.78
2023-05-08T04:38:07.110Z,64.96
2023-05-08T04:40:59.167Z,65.18
2023-05-08T04:43:51.639Z,65.22
2023-05-08T04:46:43.592Z,65.43
2023-05-08T04:49:35.558Z,65.60
2023-05-08T04:52:27.690Z,65.62
2023-05-08T04:55:19.724Z,65.68
2023-05-08T04:58:12.857Z,65.64
2023-05-08T05:01:06.309Z,65.41
2023-05-08T05:03:58.570Z,64.78
2023-05-08T05:06:50.587Z,64.66
2023-05-08T05:09:42.598Z,64.86
2023-05-08T05:12:34.549Z,64.89
2023-05-08T05:15:26.503Z,64.88
2023-05-08T05:18:19.264Z,65.00
2023-05-08T05:21:11.900Z,65.05
2023-05-08T05:24:03.969Z,65.04
2023-05-08T05:26:56.044Z,64.57
2023-05-08T05:29:48.123Z,64.29
2023-05-08T05:32:40.206Z,64.33
2023-05-08T05:35:32.325Z,64.33
2023-05-08T05:38:05.359Z,64.22
2023-05-08T05:40:57.466Z,64.29
2023-05-08T05:43:49.656Z,64.22
2023-05-08T05:46:44.099Z,64.36
2023-05-08T05:49:26.476Z,64.22
2023-05-08T05:52:18.475Z,64.34
2023-05-08T05:55:11.588Z,64.27
2023-05-08T05:58:03.959Z,63.98
2023-05-08T06:00:55.917Z,63.79
2023-05-08T06:03:48.391Z,64.17
2023-05-08T06:06:40.489Z,64.22
2023-05-08T06:09:32.466Z,63.71
2023-05-08T06:12:24.650Z,63.74
2023-05-08T06:15:16.706Z,63.36
2023-05-08T06:18:09.035Z,63.43
2023-05-08T06:21:01.489Z,63.57
2023-05-08T06:23:53.507Z,63.40
2023-05-08T06:26:46.550Z,63.81
2023-05-08T06:29:38.518Z,63.86
2023-05-08T06:32:15.696Z,64.00
2023-05-08T06:35:08.947Z,63.78
2023-05-08T06:38:01.428Z,63.71
2023-05-08T06:40:54.013Z,63.72
2023-05-08T06:43:46.033Z,64.17
2023-05-08T06:46:38.109Z,66.14
2023-05-08T06:49:30.634Z,63.19
2023-05-08T06:52:24.475Z,58.38
2023-05-08T06:55:16.733Z,58.38
2023-05-08T06:58:02.191Z,57.85
2023-05-08T07:00:54.327Z,57.28
2023-05-08T07:03:46.362Z,58.06
2023-05-08T07:06:38.489Z,58.63
2023-05-08T07:09:30.530Z,58.39
2023-05-08T07:12:22.677Z,58.27
2023-05-08T07:15:25.446Z,58.61
2023-05-08T07:18:18.301Z,58.58
2023-05-08T07:21:10.623Z,59.04
2023-05-08T07:24:02.784Z,58.82
2023-05-08T07:26:54.851Z,59.17
2023-05-08T07:29:46.893Z,58.50
2023-05-08T07:32:39.687Z,58.96
2023-05-08T07:35:31.837Z,58.66
2023-05-08T07:38:23.781Z,58.35
2023-05-08T07:41:16.134Z,58.06
2023-05-08T07:44:08.436Z,57.62
2023-05-08T07:47:00.534Z,56.60
2023-05-08T07:49:52.653Z,56.57
2023-05-08T07:52:44.617Z,56.46
2023-05-08T07:55:36.700Z,55.38
2023-05-08T07:58:28.748Z,55.90
2023-05-08T08:01:21.060Z,55.91
2023-05-08T08:04:15.307Z,55.75
2023-05-08T08:07:07.584Z,54.67
2023-05-08T08:09:59.557Z,54.29
2023-05-08T08:12:51.668Z,54.93
2023-05-08T08:15:44.691Z,54.37
2023-05-08T08:18:38.086Z,53.85
2023-05-08T08:21:31.068Z,53.89
2023-05-08T08:24:23.985Z,53.98
2023-05-08T08:27:16.030Z,53.90
2023-05-08T08:30:17.733Z,53.20
2023-05-08T08:32:53.075Z,52.57
2023-05-08T08:35:45.130Z,52.36
2023-05-08T08:38:37.114Z,52.39
2023-05-08T08:41:29.173Z,51.65
2023-05-08T08:44:21.345Z,50.90
2023-05-08T08:47:15.854Z,51.29
2023-05-08T08:50:14.258Z,51.54
2023-05-08T08:53:12.289Z,51.10
2023-05-08T08:56:06.546Z,51.26
2023-05-08T08:59:00.205Z,50.43
2023-05-08T09:01:56.150Z,50.04
2023-05-08T09:04:50.606Z,49.19
2023-05-08T09:07:43.869Z,49.49
2023-05-08T09:10:37.422Z,49.77
2023-05-08T09:13:12.443Z,50.09
2023-05-08T09:16:05.283Z,49.25
2023-05-08T09:18:57.497Z,48.68
2023-05-08T09:21:49.904Z,49.41
2023-05-08T09:25:02.206Z,49.24
2023-05-08T09:27:54.157Z,48.57
2023-05-08T09:30:53.625Z,48.01
2023-05-08T09:33:47.582Z,48.07
2023-05-08T09:36:40.616Z,47.22
2023-05-08T09:39:32.683Z,47.73
2023-05-08T09:42:25.296Z,47.50
2023-05-08T09:45:30.261Z,46.90
2023-05-08T09:48:42.538Z,47.07
2023-05-08T09:51:34.633Z,46.85
2023-05-08T09:54:26.712Z,47.10
2023-05-08T09:57:18.721Z,47.25
2023-05-08T10:00:14.022Z,46.76
2023-05-08T10:03:06.499Z,46.24
2023-05-08T10:05:41.086Z,46.51
2023-05-08T10:08:33.066Z,46.39
2023-05-08T10:11:25.022Z,46.50
2023-05-08T10:14:16.988Z,46.35
2023-05-08T10:17:12.964Z,46.06
2023-05-08T10:20:09.500Z,45.81
2023-05-08T10:23:02.414Z,46.15
2023-05-08T10:25:57.469Z,45.84
2023-05-08T10:28:58.090Z,45.96
2023-05-08T10:31:55.341Z,44.80
2023-05-08T10:34:51.059Z,44.79
2023-05-08T10:37:44.256Z,44.54
2023-05-08T10:40:36.321Z,45.17
2023-05-08T10:43:30.247Z,45.30
2023-05-08T10:46:30.374Z,45.42
2023-05-08T10:49:32.744Z,45.65
2023-05-08T10:52:31.416Z,44.87
2023-05-08T10:55:30.551Z,44.45
2023-05-08T10:58:34.460Z,44.66
2023-05-08T11:01:27.410Z,45.49
2023-05-08T11:04:26.085Z,45.38
2023-05-08T11:07:56.613Z,45.58
2023-05-08T11:11:05.343Z,45.40
2023-05-08T11:14:10.896Z,45.90
2023-05-08T11:17:12.359Z,45.11
2023-05-08T11:20:06.992Z,44.28
2023-05-08T11:23:18.966Z,44.91
2023-05-08T11:26:16.517Z,44.89
2023-05-08T11:29:18.495Z,45.00
2023-05-08T11:32:10.606Z,45.13
2023-05-08T11:35:02.747Z,44.85
2023-05-08T11:38:15.499Z,44.87
2023-05-08T11:41:08.993Z,43.92
2023-05-08T11:44:21.951Z,44.58
2023-05-08T11:47:19.825Z,43.96
2023-05-08T11:50:14.277Z,44.17
2023-05-08T11:53:06.770Z,43.95
2023-05-08T11:55:59.278Z,43.34
2023-05-08T11:59:02.476Z,43.53
2023-05-08T12:04:32.321Z,44.11
2023-05-08T12:07:24.465Z,43.28
2023-05-08T12:10:17.623Z,42.53
2023-05-08T12:13:19.816Z,43.18
2023-05-08T12:16:14.102Z,42.84
2023-05-08T12:19:10.055Z,42.51
2023-05-08T12:22:02.811Z,42.61
2023-05-08T12:24:54.879Z,42.25
2023-05-08T12:27:36.810Z,42.23
2023-05-08T12:30:28.947Z,42.96
2023-05-08T12:33:21.345Z,42.21
2023-05-08T12:36:13.348Z,42.48
2023-05-08T12:38:45.354Z,43.10
2023-05-08T12:41:43.724Z,42.42
2023-05-08T12:44:35.802Z,42.72
2023-05-08T12:47:28.046Z,41.39
2023-05-08T12:50:22.225Z,41.87
2023-05-08T12:53:16.137Z,41.61
2023-05-08T12:56:08.804Z,41.31
2023-05-08T12:59:02.766Z,41.29
2023-05-08T13:01:54.835Z,40.95
2023-05-08T13:04:47.700Z,41.72
2023-05-08T13:07:39.826Z,41.22
2023-05-08T13:10:46.195Z,41.38
2023-05-08T13:13:24.173Z,41.13
2023-05-08T13:16:16.350Z,40.86
2023-05-08T13:19:08.378Z,41.42
2023-05-08T13:22:00.322Z,41.57
2023-05-08T13:24:52.294Z,41.77
2023-05-08T13:27:44.302Z,41.71
2023-05-08T13:30:37.017Z,41.85
2023-05-08T13:33:29.015Z,41.17
2023-05-08T13:36:21.436Z,41.19
2023-05-08T13:39:13.528Z,41.35
2023-05-08T13:42:05.756Z,40.57
2023-05-08T13:44:57.740Z,40.86
2023-05-08T13:47:51.000Z,41.00
2023-05-08T13:50:43.077Z,41.30
2023-05-08T13:53:35.135Z,41.87
2023-05-08T14:19:04.798Z,41.78
2023-05-08T14:21:56.809Z,42.03
2023-05-08T14:24:48.856Z,41.89
2023-05-08T14:27:40.858Z,41.63
2023-05-08T14:30:32.820Z,40.62
2023-05-08T14:33:24.906Z,41.09
2023-05-08T14:36:17.094Z,40.96
2023-05-08T14:39:09.751Z,41.12
2023-05-08T14:44:58.887Z,41.85
2023-05-08T14:47:51.072Z,42.06
2023-05-08T14:50:43.226Z,42.35
2023-05-08T14:53:35.370Z,43.00
2023-05-08T14:56:28.923Z,42.84
2023-05-08T14:59:20.483Z,43.18
2023-05-08T15:02:08.844Z,43.38
2023-05-08T15:05:01.080Z,42.56
2023-05-08T15:07:53.196Z,42.00
2023-05-08T15:10:45.219Z,41.92
2023-05-08T15:13:37.287Z,42.32
2023-05-08T15:16:29.321Z,42.27
2023-05-08T15:19:21.312Z,42.61
2023-05-08T15:22:13.302Z,42.54
2023-05-08T15:25:05.875Z,42.66
2023-05-08T15:28:00.725Z,42.62
2023-05-08T15:30:53.259Z,42.65
2023-05-08T15:33:46.036Z,42.45
2023-05-08T15:36:38.149Z,42.39
2023-05-08T15:39:30.629Z,42.90
2023-05-08T15:42:23.008Z,43.31
2023-05-08T15:45:16.141Z,43.17
2023-05-08T15:48:08.876Z,43.30
2023-05-08T15:51:00.910Z,43.10
2023-05-08T15:53:52.973Z,42.91
2023-05-08T15:56:47.237Z,42.93
2023-05-08T15:59:38.201Z,42.88
2023-05-08T16:02:30.243Z,43.17
2023-05-08T16:05:22.565Z,43.15
2023-05-08T16:08:14.538Z,43.11
2023-05-08T16:11:06.590Z,43.12
2023-05-08T16:13:58.920Z,43.19
2023-05-08T16:16:50.868Z,43.49
2023-05-08T16:19:42.827Z,43.74
2023-05-08T16:22:34.765Z,43.97
2023-05-08T16:25:11.051Z,44.23
2023-05-08T16:28:03.439Z,44.64
2023-05-08T16:30:55.420Z,44.38
2023-05-08T16:33:47.476Z,44.34
2023-05-08T16:36:39.593Z,44.15
2023-05-08T16:39:31.636Z,44.11
2023-05-08T16:42:23.620Z,44.00
2023-05-08T16:45:15.881Z,44.38
2023-05-08T16:48:08.082Z,44.34
2023-05-08T16:51:00.208Z,44.36
2023-05-08T16:53:52.182Z,44.65
2023-05-08T16:56:39.310Z,44.56
2023-05-08T16:59:32.180Z,44.48
2023-05-08T17:02:24.205Z,44.37
2023-05-08T17:05:05.165Z,44.78
2023-05-08T17:07:57.180Z,45.19
2023-05-08T17:10:41.285Z,45.30
2023-05-08T17:13:33.334Z,45.77
2023-05-08T17:16:25.377Z,46.03
2023-05-08T17:19:17.348Z,46.03
2023-05-08T17:22:09.217Z,46.06
2023-05-08T17:25:01.160Z,46.37
2023-05-08T17:27:53.194Z,46.47
2023-05-08T17:30:46.376Z,46.56
2023-05-08T17:33:38.500Z,46.33
2023-05-08T17:36:30.519Z,46.16
2023-05-08T17:39:22.766Z,46.26
2023-05-08T17:42:14.722Z,46.46
2023-05-08T17:45:08.046Z,46.51
2023-05-08T17:48:00.252Z,46.71
2023-05-08T17:50:52.248Z,46.95
2023-05-08T17:53:44.533Z,46.91
2023-05-08T17:56:36.675Z,47.05
2023-05-08T17:59:28.701Z,47.08
2023-05-08T18:02:20.715Z,47.50
2023-05-08T18:05:12.930Z,47.52
2023-05-08T18:08:04.999Z,47.81
2023-05-08T18:10:57.081Z,48.17
2023-05-08T18:13:49.778Z,48.36
2023-05-08T18:16:41.762Z,48.48
2023-05-08T18:19:33.970Z,48.61
2023-05-08T18:22:26.251Z,48.76
2023-05-08T18:25:18.303Z,49.07
2023-05-08T18:28:10.416Z,49.28
2023-05-08T18:31:02.467Z,49.75
2023-05-08T18:33:54.547Z,49.82
2023-05-08T18:36:46.846Z,49.83
2023-05-08T18:39:38.876Z,49.97
2023-05-08T18:42:30.880Z,49.99
2023-05-08T18:45:23.436Z,50.14
2023-05-08T18:48:15.386Z,50.53
2023-05-08T18:51:07.534Z,50.29
2023-05-08T18:54:00.148Z,50.28
2023-05-08T18:56:35.120Z,50.45
2023-05-08T18:59:27.203Z,50.58
2023-05-08T19:02:04.341Z,50.66
2023-05-08T19:04:56.394Z,50.57
2023-05-08T19:07:48.379Z,50.87
2023-05-08T19:10:41.003Z,50.78
2023-05-08T19:13:33.206Z,51.05
2023-05-08T19:16:25.401Z,51.09
2023-05-08T19:19:17.574Z,51.17
2023-05-08T19:22:10.164Z,51.43
2023-05-08T19:25:02.102Z,51.65
2023-05-08T19:27:36.873Z,51.58
2023-05-08T19:30:28.857Z,51.70
2023-05-08T19:33:21.030Z,51.76
2023-05-08T19:36:13.076Z,51.81
2023-05-08T19:39:05.142Z,51.99
2023-05-08T19:41:57.439Z,52.21
2023-05-08T19:44:49.690Z,52.40
2023-05-08T19:47:41.714Z,52.68
2023-05-08T19:50:33.683Z,52.65
2023-05-08T19:53:25.681Z,52.91
2023-05-08T19:56:17.831Z,53.01
2023-05-08T19:59:09.800Z,53.20
2023-05-08T20:02:01.776Z,53.64
2023-05-08T20:05:04.266Z,53.84
2023-05-08T20:07:54.618Z,54.19
2023-05-08T20:10:31.575Z,53.99
2023-05-08T20:13:23.674Z,54.14
2023-05-08T20:16:16.062Z,54.35
2023-05-08T20:19:08.291Z,54.44
2023-05-08T20:22:00.336Z,54.68
2023-05-08T20:24:52.320Z,54.82
2023-05-08T20:27:44.302Z,55.07
2023-05-08T20:30:36.352Z,55.21
2023-05-08T20:33:28.489Z,55.41
2023-05-08T20:36:20.515Z,55.54
2023-05-08T20:39:12.837Z,55.67
2023-05-08T20:42:05.084Z,55.76
2023-05-08T20:44:57.003Z,55.80
2023-05-08T20:47:48.974Z,55.90
2023-05-08T20:50:41.062Z,56.01
2023-05-08T20:53:33.079Z,56.23
2023-05-08T20:56:25.077Z,56.32
2023-05-08T20:59:18.742Z,56.38
2023-05-08T21:02:11.639Z,56.57
2023-05-08T21:05:03.842Z,56.59
2023-05-08T21:07:59.927Z,56.60
2023-05-08T21:10:53.024Z,56.79
2023-05-08T21:13:49.170Z,56.94
2023-05-08T21:16:41.257Z,57.08
2023-05-08T21:19:18.257Z,57.14
2023-05-08T21:22:10.439Z,57.29
2023-05-08T21:25:02.396Z,57.38
2023-05-08T21:27:55.370Z,57.43
2023-05-08T21:30:47.856Z,57.46
2023-05-08T21:33:39.835Z,57.44
2023-05-08T21:36:32.136Z,57.52
2023-05-08T21:39:24.093Z,57.50
2023-05-08T21:42:16.067Z,57.59
2023-05-08T21:45:09.335Z,57.63
2023-05-08T21:48:01.569Z,57.51
2023-05-08T21:50:53.534Z,57.54
2023-05-08T21:53:45.513Z,57.57
2023-05-08T21:56:37.548Z,57.65
2023-05-08T21:59:29.484Z,57.65
2023-05-08T22:02:21.613Z,57.81
2023-05-08T22:05:14.489Z,57.94
2023-05-08T22:08:07.261Z,57.91
2023-05-08T22:10:59.278Z,58.03
2023-05-08T22:13:51.231Z,58.07
2023-05-08T22:16:43.338Z,58.12
2023-05-08T22:19:35.415Z,58.18
2023-05-08T22:22:27.540Z,58.27
2023-05-08T22:25:21.579Z,58.44
2023-05-08T22:28:13.623Z,58.62
2023-05-08T22:31:06.876Z,58.63
2023-05-08T22:33:59.722Z,58.65
2023-05-08T22:36:51.664Z,58.93
2023-05-08T22:39:43.784Z,59.02
2023-05-08T22:42:35.977Z,58.95
2023-05-08T22:45:28.375Z,59.01
2023-05-08T22:48:21.518Z,59.17
2023-05-08T22:50:53.455Z,59.08
2023-05-08T22:53:45.812Z,59.20
2023-05-08T22:56:38.215Z,59.29
2023-05-08T22:59:30.272Z,59.23
2023-05-08T23:02:22.356Z,59.45
2023-05-08T23:05:14.495Z,59.60
2023-05-08T23:08:07.161Z,59.57
2023-05-08T23:10:59.124Z,59.56
2023-05-08T23:13:51.085Z,59.64
2023-05-08T23:16:43.118Z,59.69
2023-05-08T23:19:35.115Z,59.73
2023-05-08T23:22:28.570Z,59.77
2023-05-08T23:25:20.706Z,59.98
2023-05-08T23:28:12.695Z,60.03
2023-05-08T23:31:05.045Z,60.10
2023-05-08T23:33:57.214Z,60.20
2023-05-08T23:36:49.203Z,60.26
2023-05-08T23:39:42.008Z,60.25
2023-05-08T23:42:33.889Z,60.40
2023-05-08T23:45:25.898Z,60.54
2023-05-08T23:48:17.902Z,60.50
2023-05-08T23:51:10.024Z,60.60
2023-05-08T23:54:02.178Z,60.65
2023-05-08T23:56:54.129Z,60.68
2023-05-08T23:59:46.059Z,60.77
